BGR weather

Bangor International Airport
Bangor, Maine, United States

Public forecast

Using degrees Fahrenheit for public forecast. Weather courtesy of forecast.io.

METAR (pilot weather report)

Retrieved 2017/10/22 08:53 UTC (18 minutes ago):

KBGR 220853Z 36005KT 10SM BKN200 08/04 A3039 RMK AO2 SLP292 T00830039 53018

TAF (pilot weather forecast)

Retrieved 2017/10/22 06:22 UTC (3 hours ago):

TAF KBGR 220520Z 2206/2306 VRB02KT P6SM SCT200